createdAt,value
2022-07-29T00:00:02.746Z,99821.25
2022-07-29T00:00:12.612Z,99820.66
2022-07-29T00:00:22.664Z,99814.92
2022-07-29T00:00:32.640Z,99818.43
2022-07-29T00:00:42.596Z,99819.77
2022-07-29T00:00:52.657Z,99818.05
2022-07-29T00:01:02.609Z,99817.00
2022-07-29T00:01:19.038Z,99819.01
2022-07-29T00:01:22.605Z,99819.84
2022-07-29T00:01:32.606Z,99819.77
2022-07-29T00:01:42.701Z,99817.09
2022-07-29T00:01:52.628Z,99812.44
2022-07-29T00:02:02.680Z,99813.53
2022-07-29T00:02:12.601Z,99818.37
2022-07-29T00:02:22.653Z,99812.85
2022-07-29T00:02:32.749Z,99816.12
2022-07-29T00:02:42.787Z,99813.56
2022-07-29T00:02:52.664Z,99814.69
2022-07-29T00:03:02.836Z,99815.20
2022-07-29T00:03:12.704Z,99814.91
2022-07-29T00:03:22.764Z,99815.95
2022-07-29T00:03:32.718Z,99815.21
2022-07-29T00:03:42.731Z,99809.36
2022-07-29T00:03:52.736Z,99815.66
2022-07-29T00:04:02.829Z,99811.44
2022-07-29T00:04:13.162Z,99809.02
2022-07-29T00:04:22.812Z,99808.69
2022-07-29T00:04:32.670Z,99811.20
2022-07-29T00:04:42.670Z,99809.31
2022-07-29T00:04:52.584Z,99811.66
2022-07-29T00:05:02.718Z,99815.54
2022-07-29T00:05:12.702Z,99815.04
2022-07-29T00:05:22.678Z,99810.36
2022-07-29T00:05:32.632Z,99811.36
2022-07-29T00:05:42.672Z,99812.91
2022-07-29T00:05:52.624Z,99812.98
2022-07-29T00:06:02.608Z,99814.54
2022-07-29T00:06:12.669Z,99810.51
2022-07-29T00:06:22.693Z,99812.20
2022-07-29T00:06:32.689Z,99811.03
2022-07-29T00:06:42.617Z,99812.52
2022-07-29T00:06:52.725Z,99813.70
2022-07-29T00:07:02.642Z,99814.70
2022-07-29T00:07:12.955Z,99811.52
2022-07-29T00:07:22.624Z,99816.55
2022-07-29T00:07:32.645Z,99811.94
2022-07-29T00:07:42.685Z,99808.84
2022-07-29T00:07:52.713Z,99811.94
2022-07-29T00:08:02.635Z,99809.86
2022-07-29T00:08:12.832Z,99809.69
2022-07-29T00:08:22.613Z,99813.45
2022-07-29T00:08:32.669Z,99815.04
2022-07-29T00:08:42.722Z,99812.52
2022-07-29T00:08:52.665Z,99812.61
2022-07-29T00:09:02.589Z,99809.05
2022-07-29T00:09:12.714Z,99814.40
2022-07-29T00:09:22.689Z,99811.77
2022-07-29T00:09:32.603Z,99807.93
2022-07-29T00:09:50.945Z,99810.34
2022-07-29T00:09:52.797Z,99813.20
2022-07-29T00:10:02.605Z,99810.77
2022-07-29T00:10:12.584Z,99806.69
2022-07-29T00:10:22.587Z,99809.59
2022-07-29T00:10:32.586Z,99810.68
2022-07-29T00:10:42.594Z,99810.18
2022-07-29T00:10:52.675Z,99806.92
2022-07-29T00:11:02.689Z,99806.77
2022-07-29T00:11:12.688Z,99804.16
2022-07-29T00:11:22.662Z,99805.52
2022-07-29T00:11:32.641Z,99806.21
2022-07-29T00:11:42.691Z,99807.02
2022-07-29T00:11:52.710Z,99808.02
2022-07-29T00:12:02.644Z,99801.81
2022-07-29T00:12:12.652Z,99806.34
2022-07-29T00:12:26.461Z,99806.02
2022-07-29T00:12:32.608Z,99807.19
2022-07-29T00:12:42.608Z,99802.17
2022-07-29T00:12:52.600Z,99802.41
2022-07-29T00:13:02.731Z,99802.00
2022-07-29T00:13:12.621Z,99797.11
2022-07-29T00:13:32.611Z,99795.13
2022-07-29T00:13:32.987Z,99805.02
2022-07-29T00:13:45.328Z,99797.16
2022-07-29T00:13:52.695Z,99795.82
2022-07-29T00:14:02.606Z,99794.14
2022-07-29T00:14:12.885Z,99797.78
2022-07-29T00:14:22.689Z,99796.06
2022-07-29T00:14:32.655Z,99792.47
2022-07-29T00:14:42.614Z,99794.31
2022-07-29T00:14:52.605Z,99793.52
2022-07-29T00:15:02.704Z,99795.03
2022-07-29T00:15:12.605Z,99792.86
2022-07-29T00:15:22.609Z,99793.02
2022-07-29T00:15:32.677Z,99793.91
2022-07-29T00:15:42.633Z,99789.42
2022-07-29T00:15:52.664Z,99795.45
2022-07-29T00:16:03.782Z,99790.59
2022-07-29T00:16:12.704Z,99789.59
2022-07-29T00:16:22.802Z,99793.52
2022-07-29T00:16:32.723Z,99791.30
2022-07-29T00:16:42.713Z,99791.42
2022-07-29T00:16:52.787Z,99790.92
2022-07-29T00:17:02.698Z,99791.42
2022-07-29T00:17:12.680Z,99790.69
2022-07-29T00:17:22.634Z,99791.14
2022-07-29T00:17:32.677Z,99792.86
2022-07-29T00:17:42.705Z,99789.47
2022-07-29T00:17:52.589Z,99792.19
2022-07-29T00:18:02.625Z,99790.52
2022-07-29T00:18:12.625Z,99792.35
2022-07-29T00:18:22.684Z,99791.14
2022-07-29T00:18:32.656Z,99794.70
2022-07-29T00:18:42.606Z,99792.69
2022-07-29T00:18:52.599Z,99795.70
2022-07-29T00:19:02.677Z,99795.53
2022-07-29T00:19:12.648Z,99789.80
2022-07-29T00:19:22.641Z,99789.09
2022-07-29T00:19:32.723Z,99792.45
2022-07-29T00:19:45.552Z,99792.27
2022-07-29T00:19:52.609Z,99790.44
2022-07-29T00:20:02.677Z,99788.77
2022-07-29T00:20:12.717Z,99790.02
2022-07-29T00:20:22.715Z,99791.35
2022-07-29T00:20:32.691Z,99791.19
2022-07-29T00:20:42.652Z,99789.75
2022-07-29T00:20:52.659Z,99791.35
2022-07-29T00:21:02.704Z,99791.23
2022-07-29T00:21:12.705Z,99787.12
2022-07-29T00:21:22.633Z,99790.25
2022-07-29T00:21:32.610Z,99786.80
2022-07-29T00:21:42.654Z,99787.12
2022-07-29T00:21:52.659Z,99788.42
2022-07-29T00:22:02.587Z,99785.41
2022-07-29T00:22:12.625Z,99786.12
2022-07-29T00:22:22.624Z,99787.96
2022-07-29T00:22:32.655Z,99782.69
2022-07-29T00:22:42.669Z,99784.45
2022-07-29T00:22:52.603Z,99784.44
2022-07-29T00:23:02.701Z,99788.54
2022-07-29T00:23:13.595Z,99786.62
2022-07-29T00:23:22.640Z,99786.45
2022-07-29T00:23:36.661Z,99790.30
2022-07-29T00:23:42.640Z,99787.08
2022-07-29T00:23:52.593Z,99787.62
2022-07-29T00:24:02.636Z,99787.80
2022-07-29T00:24:13.014Z,99784.61
2022-07-29T00:24:22.699Z,99785.12
2022-07-29T00:24:32.705Z,99785.44
2022-07-29T00:24:42.592Z,99787.30
2022-07-29T00:24:52.597Z,99786.86
2022-07-29T00:25:02.622Z,99786.37
2022-07-29T00:25:12.589Z,99782.69
2022-07-29T00:25:22.626Z,99786.91
2022-07-29T00:25:32.693Z,99787.45
2022-07-29T00:25:42.686Z,99787.41
2022-07-29T00:25:52.680Z,99785.94
2022-07-29T00:26:02.622Z,99788.28
2022-07-29T00:26:12.641Z,99786.94
2022-07-29T00:26:22.625Z,99785.94
2022-07-29T00:26:32.646Z,99785.62
2022-07-29T00:26:42.648Z,99787.62
2022-07-29T00:26:52.714Z,99790.44
2022-07-29T00:27:02.719Z,99786.86
2022-07-29T00:27:12.646Z,99787.45
2022-07-29T00:27:22.704Z,99786.80
2022-07-29T00:27:32.657Z,99782.44
2022-07-29T00:27:42.695Z,99788.62
2022-07-29T00:27:52.603Z,99783.23
2022-07-29T00:28:02.659Z,99782.61
2022-07-29T00:28:12.652Z,99781.94
2022-07-29T00:28:22.693Z,99785.41
2022-07-29T00:28:32.632Z,99782.83
2022-07-29T00:28:42.675Z,99780.11
2022-07-29T00:29:02.063Z,99783.45
2022-07-29T00:29:32.584Z,99785.50
2022-07-29T00:29:34.431Z,99783.06
2022-07-29T00:29:38.161Z,99785.79
2022-07-29T00:29:42.657Z,99780.31
2022-07-29T00:29:52.594Z,99783.83
2022-07-29T00:30:02.584Z,99785.21
2022-07-29T00:30:12.653Z,99782.08
2022-07-29T00:30:22.592Z,99783.97
2022-07-29T00:30:32.804Z,99782.03
2022-07-29T00:30:42.653Z,99781.03
2022-07-29T00:30:52.703Z,99782.20
2022-07-29T00:31:02.755Z,99781.53
2022-07-29T00:31:12.695Z,99785.30
2022-07-29T00:31:22.685Z,99785.42
2022-07-29T00:31:32.758Z,99778.52
2022-07-29T00:31:42.762Z,99781.37
2022-07-29T00:31:52.700Z,99782.38
2022-07-29T00:32:02.727Z,99779.20
2022-07-29T00:32:12.658Z,99776.19
2022-07-29T00:32:22.598Z,99779.70
2022-07-29T00:32:32.609Z,99777.95
2022-07-29T00:32:42.640Z,99772.84
2022-07-29T00:32:52.673Z,99773.51
2022-07-29T00:33:04.901Z,99780.03
2022-07-29T00:33:12.603Z,99774.69
2022-07-29T00:33:22.596Z,99773.97
2022-07-29T00:33:32.611Z,99774.56
2022-07-29T00:33:42.671Z,99772.55
2022-07-29T00:33:52.615Z,99770.67
2022-07-29T00:34:02.691Z,99769.12
2022-07-29T00:34:13.103Z,99768.28
2022-07-29T00:34:22.588Z,99770.38
2022-07-29T00:34:32.715Z,99768.95
2022-07-29T00:34:42.721Z,99772.89
2022-07-29T00:34:52.700Z,99768.62
2022-07-29T00:35:02.652Z,99767.56
2022-07-29T00:35:12.594Z,99768.23
2022-07-29T00:35:22.645Z,99767.41
2022-07-29T00:35:32.678Z,99767.91
2022-07-29T00:35:42.617Z,99769.23
2022-07-29T00:35:52.715Z,99767.78
2022-07-29T00:36:02.710Z,99771.58
2022-07-29T00:36:12.673Z,99772.92
2022-07-29T00:36:22.697Z,99765.69
2022-07-29T00:36:32.679Z,99767.69
2022-07-29T00:36:42.666Z,99770.03
2022-07-29T00:36:52.585Z,99767.23
2022-07-29T00:37:02.621Z,99764.52
2022-07-29T00:37:12.618Z,99765.94
2022-07-29T00:37:22.613Z,99766.61
2022-07-29T00:37:32.669Z,99767.03
2022-07-29T00:37:42.671Z,99767.54
2022-07-29T00:37:52.604Z,99768.02
2022-07-29T00:38:02.686Z,99767.83
2022-07-29T00:38:12.589Z,99767.20
2022-07-29T00:38:22.598Z,99764.31
2022-07-29T00:38:32.653Z,99767.70
2022-07-29T00:38:42.677Z,99767.34
2022-07-29T00:38:52.593Z,99764.70
2022-07-29T00:39:02.714Z,99766.32
2022-07-29T00:39:12.647Z,99766.16
2022-07-29T00:39:22.693Z,99763.48
2022-07-29T00:39:32.661Z,99765.75
2022-07-29T00:39:42.714Z,99766.16
2022-07-29T00:39:52.692Z,99763.74
2022-07-29T00:40:02.676Z,99765.21
2022-07-29T00:40:12.588Z,99765.67
2022-07-29T00:40:23.530Z,99762.98
2022-07-29T00:40:32.656Z,99766.41
2022-07-29T00:40:43.969Z,99767.46
2022-07-29T00:40:52.719Z,99766.49
2022-07-29T00:41:02.701Z,99763.45
2022-07-29T00:41:12.694Z,99763.83
2022-07-29T00:41:22.668Z,99764.79
2022-07-29T00:41:32.701Z,99764.74
2022-07-29T00:41:42.619Z,99764.66
2022-07-29T00:41:52.655Z,99766.17
2022-07-29T00:42:02.591Z,99768.52
2022-07-29T00:42:12.590Z,99766.05
2022-07-29T00:42:22.687Z,99762.49
2022-07-29T00:42:32.587Z,99763.00
2022-07-29T00:42:42.706Z,99765.17
2022-07-29T00:42:52.609Z,99763.83
2022-07-29T00:43:02.664Z,99764.50
2022-07-29T00:43:12.709Z,99765.62
2022-07-29T00:43:22.714Z,99762.83
2022-07-29T00:43:32.641Z,99764.79
2022-07-29T00:43:42.622Z,99763.28
2022-07-29T00:43:52.639Z,99761.20
2022-07-29T00:44:02.615Z,99765.05
2022-07-29T00:44:12.975Z,99761.20
2022-07-29T00:44:22.644Z,99760.70
2022-07-29T00:44:32.604Z,99758.60
2022-07-29T00:44:42.723Z,99758.94
2022-07-29T00:44:52.604Z,99762.03
2022-07-29T00:45:02.604Z,99757.52
2022-07-29T00:45:12.650Z,99758.10
2022-07-29T00:45:22.709Z,99761.33
2022-07-29T00:45:32.626Z,99762.95
2022-07-29T00:45:42.672Z,99760.83
2022-07-29T00:45:52.694Z,99757.48
2022-07-29T00:46:02.682Z,99761.33
2022-07-29T00:46:12.653Z,99757.55
2022-07-29T00:46:22.678Z,99759.11
2022-07-29T00:46:32.725Z,99757.05
2022-07-29T00:46:42.644Z,99759.03
2022-07-29T00:46:52.785Z,99758.10
2022-07-29T00:47:02.731Z,99757.97
2022-07-29T00:47:12.726Z,99758.02
2022-07-29T00:47:22.683Z,99761.20
2022-07-29T00:47:32.587Z,99761.37
2022-07-29T00:47:42.716Z,99761.03
2022-07-29T00:47:52.594Z,99755.55
2022-07-29T00:48:02.652Z,99758.95
2022-07-29T00:48:12.655Z,99760.91
2022-07-29T00:48:22.634Z,99761.53
2022-07-29T00:48:32.591Z,99760.87
2022-07-29T00:48:42.772Z,99760.16
2022-07-29T00:48:52.760Z,99759.11
2022-07-29T00:49:02.679Z,99759.03
2022-07-29T00:49:12.744Z,99758.70
2022-07-29T00:49:22.771Z,99757.94
2022-07-29T00:49:32.643Z,99756.64
2022-07-29T00:49:42.592Z,99758.53
2022-07-29T00:49:52.642Z,99758.14
2022-07-29T00:50:02.707Z,99758.28
2022-07-29T00:50:12.685Z,99760.11
2022-07-29T00:50:22.621Z,99760.75
2022-07-29T00:50:32.702Z,99762.03
2022-07-29T00:50:42.667Z,99760.11
2022-07-29T00:50:52.645Z,99763.95
2022-07-29T00:51:02.642Z,99759.28
2022-07-29T00:51:12.702Z,99758.70
2022-07-29T00:51:22.666Z,99760.62
2022-07-29T00:51:32.589Z,99759.08
2022-07-29T00:51:42.680Z,99760.58
2022-07-29T00:51:52.717Z,99759.62
2022-07-29T00:52:02.645Z,99759.09
2022-07-29T00:52:12.628Z,99754.98
2022-07-29T00:52:22.650Z,99755.58
2022-07-29T00:52:32.696Z,99756.42
2022-07-29T00:52:42.622Z,99757.08
2022-07-29T00:52:52.644Z,99755.58
2022-07-29T00:53:02.698Z,99755.70
2022-07-29T00:53:12.698Z,99756.70
2022-07-29T00:53:22.607Z,99758.47
2022-07-29T00:53:32.651Z,99754.53
2022-07-29T00:53:42.699Z,99755.36
2022-07-29T00:53:52.636Z,99753.53
2022-07-29T00:54:02.693Z,99756.46
2022-07-29T00:54:12.893Z,99755.12
2022-07-29T00:54:22.694Z,99753.03
2022-07-29T00:54:32.655Z,99752.38
2022-07-29T00:54:44.758Z,99752.20
2022-07-29T00:54:52.610Z,99754.50
2022-07-29T00:55:08.009Z,99755.84
2022-07-29T00:55:12.633Z,99755.17
2022-07-29T00:55:22.599Z,99751.84
2022-07-29T00:55:32.693Z,99752.46
2022-07-29T00:55:42.595Z,99753.05
2022-07-29T00:55:52.699Z,99750.72
2022-07-29T00:56:02.655Z,99750.38
2022-07-29T00:56:12.687Z,99750.77
2022-07-29T00:56:22.672Z,99751.09
2022-07-29T00:56:32.658Z,99751.93
2022-07-29T00:56:42.720Z,99752.27
2022-07-29T00:56:52.714Z,99754.94
2022-07-29T00:57:02.680Z,99751.19
2022-07-29T00:57:12.686Z,99749.27
2022-07-29T00:57:22.662Z,99751.73
2022-07-29T00:57:32.721Z,99747.77
2022-07-29T00:57:42.708Z,99749.24
2022-07-29T00:57:52.714Z,99744.21
2022-07-29T00:58:02.624Z,99746.35
2022-07-29T00:58:12.645Z,99746.44
2022-07-29T00:58:22.659Z,99746.78
2022-07-29T00:58:32.649Z,99748.11
2022-07-29T00:58:42.587Z,99746.47
2022-07-29T00:58:52.643Z,99745.19
2022-07-29T00:59:02.695Z,99746.53
2022-07-29T00:59:12.597Z,99746.53
2022-07-29T00:59:22.606Z,99746.16
2022-07-29T00:59:34.763Z,99746.48
2022-07-29T00:59:42.696Z,99743.01
2022-07-29T00:59:52.709Z,99743.52
2022-07-29T01:00:02.687Z,99743.52
2022-07-29T01:00:12.650Z,99743.14
2022-07-29T01:00:22.594Z,99744.41
2022-07-29T01:00:32.706Z,99742.73
2022-07-29T01:00:42.685Z,99738.22
2022-07-29T01:00:52.760Z,99743.23
2022-07-29T01:01:02.758Z,99742.11
2022-07-29T01:01:12.754Z,99740.56
2022-07-29T01:01:22.670Z,99744.91
2022-07-29T01:01:32.794Z,99742.62
2022-07-29T01:01:42.724Z,99743.38
2022-07-29T01:01:52.638Z,99740.77
2022-07-29T01:02:02.710Z,99739.44
2022-07-29T01:02:12.702Z,99741.27
2022-07-29T01:02:22.760Z,99738.27
2022-07-29T01:02:32.720Z,99736.21
2022-07-29T01:02:42.646Z,99740.94
2022-07-29T01:02:52.639Z,99740.44
2022-07-29T01:03:02.687Z,99736.80
2022-07-29T01:03:12.715Z,99743.78
2022-07-29T01:03:22.609Z,99745.21
2022-07-29T01:03:32.695Z,99739.94
2022-07-29T01:03:42.598Z,99735.09
2022-07-29T01:03:52.634Z,99740.60
2022-07-29T01:04:02.608Z,99736.59
2022-07-29T01:04:13.042Z,99735.92
2022-07-29T01:04:22.609Z,99738.27
2022-07-29T01:04:32.662Z,99736.75
2022-07-29T01:04:42.710Z,99738.45
2022-07-29T01:04:52.598Z,99737.52
2022-07-29T01:05:02.709Z,99737.77
2022-07-29T01:05:12.696Z,99735.09
2022-07-29T01:05:22.665Z,99733.51
2022-07-29T01:05:50.553Z,99732.67
2022-07-29T01:05:50.994Z,99735.59
2022-07-29T01:05:52.668Z,99734.08
2022-07-29T01:06:02.640Z,99735.60
2022-07-29T01:06:12.695Z,99735.60
2022-07-29T01:06:22.722Z,99738.43
2022-07-29T01:06:32.601Z,99739.44
2022-07-29T01:06:42.652Z,99739.86
2022-07-29T01:06:52.642Z,99738.27
2022-07-29T01:07:02.666Z,99738.23
2022-07-29T01:07:12.687Z,99738.69
2022-07-29T01:07:22.708Z,99740.10
2022-07-29T01:07:32.672Z,99740.10
2022-07-29T01:07:42.595Z,99741.78
2022-07-29T01:07:52.624Z,99741.45
2022-07-29T01:08:02.598Z,99733.30
2022-07-29T01:08:12.629Z,99738.77
2022-07-29T01:08:22.646Z,99736.92
2022-07-29T01:08:32.694Z,99738.64
2022-07-29T01:08:42.654Z,99737.26
2022-07-29T01:08:52.594Z,99738.48
2022-07-29T01:09:02.635Z,99738.09
2022-07-29T01:09:12.678Z,99729.41
2022-07-29T01:09:34.962Z,99735.52
2022-07-29T01:09:35.029Z,99737.69
2022-07-29T01:09:45.879Z,99736.44
2022-07-29T01:09:52.675Z,99735.25
2022-07-29T01:10:02.612Z,99734.04
2022-07-29T01:10:12.604Z,99733.58
2022-07-29T01:10:22.639Z,99736.59
2022-07-29T01:10:32.662Z,99734.01
2022-07-29T01:10:42.696Z,99733.91
2022-07-29T01:10:52.729Z,99732.88
2022-07-29T01:11:02.616Z,99732.53
2022-07-29T01:11:12.633Z,99731.20
2022-07-29T01:11:22.721Z,99732.41
2022-07-29T01:11:32.659Z,99733.41
2022-07-29T01:11:42.683Z,99729.95
2022-07-29T01:11:52.731Z,99731.62
2022-07-29T01:12:02.614Z,99734.42
2022-07-29T01:12:12.662Z,99733.75
2022-07-29T01:12:22.647Z,99732.41
2022-07-29T01:12:32.691Z,99732.42
2022-07-29T01:12:42.596Z,99733.84
2022-07-29T01:12:52.685Z,99729.20
2022-07-29T01:13:02.615Z,99728.75
2022-07-29T01:13:12.676Z,99732.77
2022-07-29T01:13:22.616Z,99734.72
2022-07-29T01:13:32.693Z,99731.89
2022-07-29T01:13:42.671Z,99733.23
2022-07-29T01:13:52.594Z,99733.44
2022-07-29T01:14:02.601Z,99729.62
2022-07-29T01:14:12.905Z,99731.39
2022-07-29T01:14:22.612Z,99726.66
2022-07-29T01:14:32.613Z,99727.38
2022-07-29T01:14:42.664Z,99729.84
2022-07-29T01:14:52.685Z,99725.66
2022-07-29T01:15:02.716Z,99731.31
2022-07-29T01:15:12.602Z,99729.86
2022-07-29T01:15:22.677Z,99732.83
2022-07-29T01:15:32.688Z,99726.75
2022-07-29T01:15:49.157Z,99731.56
2022-07-29T01:15:52.709Z,99729.94
2022-07-29T01:16:02.719Z,99727.55
2022-07-29T01:16:12.807Z,99731.06
2022-07-29T01:16:22.692Z,99729.66
2022-07-29T01:16:32.744Z,99734.34
2022-07-29T01:16:42.680Z,99730.28
2022-07-29T01:16:52.702Z,99731.30
2022-07-29T01:17:02.648Z,99733.38
2022-07-29T01:17:12.668Z,99731.20
2022-07-29T01:17:22.677Z,99731.78
2022-07-29T01:17:32.647Z,99730.45
2022-07-29T01:17:52.666Z,99731.25
2022-07-29T01:17:53.799Z,99723.94
2022-07-29T01:18:02.639Z,99727.41
2022-07-29T01:18:12.662Z,99726.75
2022-07-29T01:18:22.665Z,99731.34
2022-07-29T01:18:32.690Z,99728.33
2022-07-29T01:18:42.677Z,99729.25
2022-07-29T01:18:52.669Z,99733.39
2022-07-29T01:19:02.675Z,99728.70
2022-07-29T01:19:12.683Z,99730.21
2022-07-29T01:19:22.665Z,99732.31
2022-07-29T01:19:32.623Z,99732.14
2022-07-29T01:19:42.626Z,99727.03
2022-07-29T01:19:52.606Z,99732.05
2022-07-29T01:20:02.693Z,99731.80
2022-07-29T01:20:12.627Z,99730.55
2022-07-29T01:20:22.629Z,99727.88
2022-07-29T01:20:32.659Z,99731.18
2022-07-29T01:20:42.612Z,99733.22
2022-07-29T01:20:52.680Z,99731.69
2022-07-29T01:21:02.665Z,99729.01
2022-07-29T01:21:12.696Z,99728.84
2022-07-29T01:21:22.597Z,99727.77
2022-07-29T01:21:32.607Z,99730.27
2022-07-29T01:21:42.695Z,99728.27
2022-07-29T01:21:52.710Z,99730.15
2022-07-29T01:22:02.630Z,99726.76
2022-07-29T01:22:12.597Z,99727.31
2022-07-29T01:22:22.598Z,99730.15
2022-07-29T01:22:32.686Z,99723.12
2022-07-29T01:22:42.591Z,99729.32
2022-07-29T01:22:52.667Z,99724.48
2022-07-29T01:23:02.583Z,99726.48
2022-07-29T01:23:12.682Z,99725.89
2022-07-29T01:23:22.713Z,99726.65
2022-07-29T01:23:32.588Z,99727.53
2022-07-29T01:23:42.612Z,99727.03
2022-07-29T01:23:52.596Z,99723.55
2022-07-29T01:24:02.590Z,99727.86
2022-07-29T01:24:12.954Z,99724.09
2022-07-29T01:24:22.659Z,99720.70
2022-07-29T01:24:32.678Z,99730.83
2022-07-29T01:24:42.604Z,99726.19
2022-07-29T01:24:52.660Z,99723.85
2022-07-29T01:25:02.679Z,99724.97
2022-07-29T01:25:12.672Z,99726.98
2022-07-29T01:25:22.640Z,99723.80
2022-07-29T01:25:32.677Z,99721.00
2022-07-29T01:25:42.643Z,99722.47
2022-07-29T01:25:56.009Z,99720.96
2022-07-29T01:26:02.649Z,99725.09
2022-07-29T01:26:12.644Z,99722.34
2022-07-29T01:26:22.699Z,99722.42
2022-07-29T01:26:32.610Z,99722.42
2022-07-29T01:26:42.586Z,99722.01
2022-07-29T01:26:52.690Z,99724.92
2022-07-29T01:27:02.590Z,99722.25
2022-07-29T01:27:12.717Z,99724.42
2022-07-29T01:27:22.673Z,99723.18
2022-07-29T01:27:32.687Z,99721.42
2022-07-29T01:27:42.668Z,99721.34
2022-07-29T01:27:52.713Z,99718.57
2022-07-29T01:28:02.599Z,99719.29
2022-07-29T01:28:12.661Z,99722.27
2022-07-29T01:28:24.236Z,99718.59
2022-07-29T01:28:32.645Z,99719.59
2022-07-29T01:28:42.616Z,99720.17
2022-07-29T01:28:52.620Z,99718.25
2022-07-29T01:29:04.053Z,99718.80
2022-07-29T01:29:12.647Z,99719.59
2022-07-29T01:29:22.686Z,99723.73
2022-07-29T01:29:36.155Z,99720.72
2022-07-29T01:29:42.635Z,99721.77
2022-07-29T01:29:52.706Z,99715.74
2022-07-29T01:30:02.640Z,99716.08
2022-07-29T01:30:13.823Z,99713.86
2022-07-29T01:30:22.681Z,99720.18
2022-07-29T01:30:32.703Z,99719.80
2022-07-29T01:30:42.649Z,99711.61
2022-07-29T01:30:52.828Z,99717.05
2022-07-29T01:31:02.639Z,99715.28
2022-07-29T01:31:14.630Z,99716.50
2022-07-29T01:31:25.368Z,99716.33
2022-07-29T01:31:32.713Z,99715.92
2022-07-29T01:31:42.611Z,99716.83
2022-07-29T01:31:59.133Z,99715.16
2022-07-29T01:32:02.707Z,99716.02
2022-07-29T01:32:27.730Z,99712.24
2022-07-29T01:32:28.807Z,99716.02
2022-07-29T01:32:32.697Z,99713.84
2022-07-29T01:32:42.700Z,99714.84
2022-07-29T01:32:52.709Z,99714.25
2022-07-29T01:33:02.614Z,99712.50
2022-07-29T01:33:12.591Z,99713.58
2022-07-29T01:33:22.664Z,99716.68
2022-07-29T01:33:32.674Z,99713.16
2022-07-29T01:33:42.594Z,99715.00
2022-07-29T01:33:52.705Z,99713.67
2022-07-29T01:34:02.666Z,99713.99
2022-07-29T01:34:12.805Z,99714.00
2022-07-29T01:34:22.701Z,99712.48
2022-07-29T01:34:32.613Z,99710.98
2022-07-29T01:34:42.707Z,99711.27
2022-07-29T01:34:52.612Z,99712.58
2022-07-29T01:35:02.596Z,99708.64
2022-07-29T01:35:12.676Z,99705.97
2022-07-29T01:35:22.630Z,99711.98
2022-07-29T01:35:32.705Z,99709.48
2022-07-29T01:35:42.633Z,99711.95
2022-07-29T01:35:52.642Z,99706.12
2022-07-29T01:36:02.718Z,99709.48
2022-07-29T01:36:12.653Z,99709.23
2022-07-29T01:36:22.646Z,99710.23
2022-07-29T01:36:32.620Z,99709.14
2022-07-29T01:36:42.658Z,99709.16
2022-07-29T01:36:52.612Z,99711.78
2022-07-29T01:37:02.593Z,99710.73
2022-07-29T01:37:12.700Z,99712.38
2022-07-29T01:37:22.645Z,99708.36
2022-07-29T01:37:32.610Z,99711.88
2022-07-29T01:37:42.594Z,99708.98
2022-07-29T01:37:52.592Z,99711.83
2022-07-29T01:38:02.679Z,99709.48
2022-07-29T01:38:12.640Z,99707.31
2022-07-29T01:38:22.658Z,99706.86
2022-07-29T01:38:32.686Z,99710.88
2022-07-29T01:38:42.715Z,99711.88
2022-07-29T01:38:52.725Z,99708.36
2022-07-29T01:39:02.672Z,99706.78
2022-07-29T01:39:12.702Z,99711.70
2022-07-29T01:39:22.603Z,99704.64
2022-07-29T01:39:33.377Z,99710.75
2022-07-29T01:39:42.603Z,99709.27
2022-07-29T01:39:52.591Z,99710.58
2022-07-29T01:40:02.658Z,99709.44
2022-07-29T01:40:12.708Z,99707.14
2022-07-29T01:40:22.705Z,99706.55
2022-07-29T01:40:32.672Z,99707.13
2022-07-29T01:40:42.637Z,99708.81
2022-07-29T01:40:52.609Z,99707.14
2022-07-29T01:41:02.703Z,99707.48
2022-07-29T01:41:12.600Z,99709.66
2022-07-29T01:41:22.646Z,99706.98
2022-07-29T01:41:32.610Z,99710.14
2022-07-29T01:41:42.731Z,99712.44
2022-07-29T01:41:52.651Z,99712.98
2022-07-29T01:42:02.646Z,99710.17
2022-07-29T01:42:12.646Z,99710.05
2022-07-29T01:42:22.644Z,99708.53
2022-07-29T01:42:32.720Z,99714.15
2022-07-29T01:42:42.667Z,99710.55
2022-07-29T01:42:52.608Z,99715.73
2022-07-29T01:43:02.713Z,99711.09
2022-07-29T01:43:12.627Z,99715.58
2022-07-29T01:43:22.628Z,99716.33
2022-07-29T01:43:32.610Z,99717.95
2022-07-29T01:43:42.587Z,99715.56
2022-07-29T01:43:52.648Z,99716.40
2022-07-29T01:44:02.620Z,99719.50
2022-07-29T01:44:12.963Z,99715.73
2022-07-29T01:44:22.591Z,99717.16
2022-07-29T01:44:32.689Z,99719.41
2022-07-29T01:44:42.659Z,99716.83
2022-07-29T01:44:52.703Z,99718.50
2022-07-29T01:45:02.586Z,99714.81
2022-07-29T01:45:12.700Z,99713.94
2022-07-29T01:45:22.615Z,99715.73
2022-07-29T01:45:32.620Z,99713.89
2022-07-29T01:45:42.693Z,99715.44
2022-07-29T01:45:52.679Z,99715.66
2022-07-29T01:46:02.715Z,99712.89
2022-07-29T01:46:12.691Z,99714.72
2022-07-29T01:46:22.708Z,99708.75
2022-07-29T01:46:32.710Z,99715.73
2022-07-29T01:46:42.759Z,99713.72
2022-07-29T01:46:52.752Z,99711.88
2022-07-29T01:47:02.738Z,99710.88
2022-07-29T01:47:12.719Z,99708.80
2022-07-29T01:47:22.596Z,99711.55
2022-07-29T01:47:32.639Z,99713.59
2022-07-29T01:47:42.608Z,99712.97
2022-07-29T01:47:52.657Z,99715.28
2022-07-29T01:48:02.691Z,99710.73
2022-07-29T01:48:12.613Z,99714.95
2022-07-29T01:48:22.601Z,99709.63
2022-07-29T01:48:32.699Z,99711.34
2022-07-29T01:48:42.694Z,99711.73
2022-07-29T01:48:52.773Z,99711.85
2022-07-29T01:49:02.769Z,99711.34
2022-07-29T01:49:12.705Z,99710.23
2022-07-29T01:49:22.712Z,99711.98
2022-07-29T01:49:32.616Z,99705.02
2022-07-29T01:49:42.671Z,99706.53
2022-07-29T01:49:52.659Z,99709.84
2022-07-29T01:50:02.633Z,99706.03
2022-07-29T01:50:12.722Z,99709.47
2022-07-29T01:50:22.589Z,99711.34
2022-07-29T01:50:32.606Z,99711.23
2022-07-29T01:50:42.625Z,99708.38
2022-07-29T01:50:52.666Z,99709.72
2022-07-29T01:51:02.696Z,99710.73
2022-07-29T01:51:12.694Z,99707.96
2022-07-29T01:51:22.612Z,99711.23
2022-07-29T01:51:32.614Z,99706.95
2022-07-29T01:51:42.600Z,99705.62
2022-07-29T01:51:52.694Z,99704.86
2022-07-29T01:52:02.606Z,99703.52
2022-07-29T01:52:12.682Z,99705.36
2022-07-29T01:52:22.712Z,99708.05
2022-07-29T01:52:32.711Z,99701.84
2022-07-29T01:52:42.689Z,99702.85
2022-07-29T01:52:52.719Z,99708.38
2022-07-29T01:53:02.688Z,99706.62
2022-07-29T01:53:12.698Z,99704.36
2022-07-29T01:53:22.703Z,99705.71
2022-07-29T01:53:37.697Z,99705.02
2022-07-29T01:53:42.697Z,99703.61
2022-07-29T01:53:52.698Z,99707.72
2022-07-29T01:54:02.698Z,99708.72
2022-07-29T01:54:12.994Z,99703.86
2022-07-29T01:54:22.686Z,99704.69
2022-07-29T01:54:32.697Z,99705.78
2022-07-29T01:54:42.591Z,99705.74
2022-07-29T01:54:52.658Z,99704.69
2022-07-29T01:55:02.675Z,99702.39
2022-07-29T01:55:12.632Z,99704.69
2022-07-29T01:55:22.671Z,99707.79
2022-07-29T01:55:32.600Z,99704.41
2022-07-29T01:55:42.645Z,99705.36
2022-07-29T01:55:52.655Z,99705.70
2022-07-29T01:56:02.663Z,99708.88
2022-07-29T01:56:12.705Z,99705.53
2022-07-29T01:56:22.630Z,99705.12
2022-07-29T01:56:32.682Z,99707.46
2022-07-29T01:56:42.589Z,99704.69
2022-07-29T01:56:52.735Z,99706.79
2022-07-29T01:57:02.710Z,99703.19
2022-07-29T01:57:12.588Z,99706.55
2022-07-29T01:57:22.596Z,99703.53
2022-07-29T01:57:32.666Z,99701.86